createdAt,value
2023-03-16T00:00:14.999Z,99.70
2023-03-16T00:01:14.973Z,99.99
2023-03-16T00:02:15.005Z,99.99
2023-03-16T00:03:15.063Z,99.91
2023-03-16T00:04:14.944Z,99.99
2023-03-16T00:05:14.981Z,99.95
2023-03-16T00:06:14.912Z,99.99
2023-03-16T00:07:14.901Z,99.99
2023-03-16T00:08:14.885Z,99.99
2023-03-16T00:09:14.888Z,99.99
2023-03-16T00:10:14.936Z,99.99
2023-03-16T00:11:14.946Z,99.99
2023-03-16T00:12:14.837Z,99.99
2023-03-16T00:13:14.824Z,99.99
2023-03-16T00:14:14.826Z,99.99
2023-03-16T00:15:14.801Z,99.99
2023-03-16T00:16:14.826Z,99.99
2023-03-16T00:17:14.774Z,99.99
2023-03-16T00:18:14.759Z,99.99
2023-03-16T00:19:14.768Z,99.99
2023-03-16T00:20:14.736Z,99.99
2023-03-16T00:21:14.755Z,99.85
2023-03-16T00:22:14.812Z,99.74
2023-03-16T00:23:14.717Z,99.85
2023-03-16T00:24:14.718Z,99.79
2023-03-16T00:25:14.675Z,99.79
2023-03-16T00:26:14.666Z,99.99
2023-03-16T00:27:14.667Z,99.99
2023-03-16T00:28:14.645Z,99.99
2023-03-16T00:29:14.641Z,99.99
2023-03-16T00:30:14.619Z,99.99
2023-03-16T00:31:14.752Z,99.99
2023-03-16T00:32:14.586Z,99.99
2023-03-16T00:33:14.585Z,99.99
2023-03-16T00:34:14.621Z,99.99
2023-03-16T00:35:14.560Z,99.99
2023-03-16T00:36:14.578Z,99.99
2023-03-16T00:37:14.646Z,99.99
2023-03-16T00:38:14.576Z,99.99
2023-03-16T00:39:14.586Z,99.99
2023-03-16T00:40:14.480Z,99.99
2023-03-16T00:41:14.508Z,99.99
2023-03-16T00:42:14.476Z,99.99
2023-03-16T00:43:14.451Z,99.99
2023-03-16T00:44:14.448Z,99.99
2023-03-16T00:45:14.439Z,99.99
2023-03-16T00:46:14.466Z,99.99
2023-03-16T00:47:14.398Z,99.99
2023-03-16T00:48:14.406Z,99.99
2023-03-16T00:49:14.375Z,99.99
2023-03-16T00:50:14.379Z,99.99
2023-03-16T00:51:14.348Z,99.99
2023-03-16T00:52:14.338Z,99.99
2023-03-16T00:53:14.462Z,99.99
2023-03-16T00:54:14.328Z,99.99
2023-03-16T00:55:14.319Z,99.99
2023-03-16T00:56:14.292Z,99.99
2023-03-16T00:57:14.279Z,99.99
2023-03-16T00:58:14.269Z,99.99
2023-03-16T00:59:14.254Z,99.99
2023-03-16T01:00:14.253Z,99.99
2023-03-16T01:01:14.306Z,99.99
2023-03-16T01:02:14.226Z,99.99
2023-03-16T01:03:14.254Z,99.99
2023-03-16T01:04:14.190Z,99.99
2023-03-16T01:05:14.204Z,99.99
2023-03-16T01:06:14.168Z,99.99
2023-03-16T01:07:14.157Z,99.99
2023-03-16T01:08:14.142Z,99.99
2023-03-16T01:09:14.148Z,99.99
2023-03-16T01:10:14.159Z,99.99
2023-03-16T01:11:14.106Z,99.99
2023-03-16T01:12:14.092Z,99.99
2023-03-16T01:13:14.078Z,99.99
2023-03-16T01:14:14.073Z,99.99
2023-03-16T01:15:14.077Z,99.99
2023-03-16T01:16:14.114Z,99.99
2023-03-16T01:17:14.034Z,99.99
2023-03-16T01:18:14.025Z,99.99
2023-03-16T01:19:14.010Z,99.99
2023-03-16T01:20:14.048Z,99.99
2023-03-16T01:21:14.043Z,99.99
2023-03-16T01:22:13.970Z,99.99
2023-03-16T01:23:13.958Z,99.99
2023-03-16T01:24:13.945Z,99.99
2023-03-16T01:25:13.973Z,99.99
2023-03-16T01:26:13.921Z,99.99
2023-03-16T01:27:13.928Z,99.99
2023-03-16T01:28:13.894Z,99.99
2023-03-16T01:29:13.884Z,99.99
2023-03-16T01:30:13.883Z,99.99
2023-03-16T01:31:13.898Z,99.99
2023-03-16T01:32:13.866Z,99.99
2023-03-16T01:33:13.836Z,99.99
2023-03-16T01:34:13.818Z,99.99
2023-03-16T01:35:13.836Z,99.99
2023-03-16T01:36:13.810Z,99.99
2023-03-16T01:37:13.793Z,99.99
2023-03-16T01:38:13.774Z,99.99
2023-03-16T01:39:13.759Z,99.99
2023-03-16T01:40:13.763Z,99.99
2023-03-16T01:41:13.775Z,99.99
2023-03-16T01:42:13.727Z,99.99
2023-03-16T01:43:13.708Z,99.99
2023-03-16T01:44:13.692Z,99.99
2023-03-16T01:45:13.718Z,99.99
2023-03-16T01:46:13.698Z,99.99
2023-03-16T01:47:13.657Z,99.99
2023-03-16T01:48:13.642Z,99.99
2023-03-16T01:49:13.633Z,99.99
2023-03-16T01:50:13.646Z,99.99
2023-03-16T01:51:13.628Z,99.99
2023-03-16T01:52:13.595Z,99.99
2023-03-16T01:53:13.586Z,99.99
2023-03-16T01:54:13.571Z,99.99
2023-03-16T01:55:13.579Z,99.99
2023-03-16T01:56:13.564Z,99.99
2023-03-16T01:57:13.571Z,99.99
2023-03-16T01:58:13.523Z,99.99
2023-03-16T01:59:13.508Z,99.99
2023-03-16T02:00:13.496Z,99.99
2023-03-16T02:01:13.531Z,99.99
2023-03-16T02:02:13.480Z,99.99
2023-03-16T02:03:13.464Z,99.99
2023-03-16T02:04:13.496Z,99.99
2023-03-16T02:05:13.443Z,99.99
2023-03-16T02:06:13.445Z,99.99
2023-03-16T02:07:13.413Z,99.99
2023-03-16T02:08:13.398Z,99.99
2023-03-16T02:09:13.393Z,99.99
2023-03-16T02:10:13.385Z,99.99
2023-03-16T02:11:13.374Z,99.99
2023-03-16T02:12:13.346Z,99.99
2023-03-16T02:13:13.380Z,99.99
2023-03-16T02:14:13.331Z,99.99
2023-03-16T02:15:13.319Z,99.99
2023-03-16T02:16:13.352Z,99.99
2023-03-16T02:17:13.292Z,99.99
2023-03-16T02:18:13.279Z,99.99
2023-03-16T02:19:13.268Z,99.99
2023-03-16T02:20:13.251Z,99.99
2023-03-16T02:21:13.260Z,99.99
2023-03-16T02:22:13.226Z,99.99
2023-03-16T02:23:13.217Z,99.99
2023-03-16T02:24:13.200Z,99.99
2023-03-16T02:25:13.188Z,99.99
2023-03-16T02:26:13.200Z,99.99
2023-03-16T02:27:13.163Z,99.99
2023-03-16T02:28:13.152Z,99.99
2023-03-16T02:29:13.155Z,99.99
2023-03-16T02:30:13.137Z,99.99
2023-03-16T02:31:13.211Z,99.99
2023-03-16T02:32:13.100Z,99.99
2023-03-16T02:33:13.094Z,99.99
2023-03-16T02:34:13.076Z,99.99
2023-03-16T02:35:13.067Z,99.99
2023-03-16T02:36:13.066Z,99.99
2023-03-16T02:37:13.045Z,99.99
2023-03-16T02:38:13.113Z,99.99
2023-03-16T02:39:13.015Z,99.99
2023-03-16T02:40:13.011Z,99.99
2023-03-16T02:41:13.026Z,99.99
2023-03-16T02:42:12.985Z,99.99
2023-03-16T02:43:12.971Z,99.99
2023-03-16T02:44:12.951Z,99.99
2023-03-16T02:45:12.962Z,99.99
2023-03-16T02:46:12.964Z,99.99
2023-03-16T02:47:12.918Z,99.99
2023-03-16T02:48:12.905Z,99.99
2023-03-16T02:49:12.897Z,99.99
2023-03-16T02:50:12.885Z,99.99
2023-03-16T02:51:12.883Z,99.99
2023-03-16T02:52:12.860Z,99.99
2023-03-16T02:53:12.843Z,99.99
2023-03-16T02:54:12.851Z,99.99
2023-03-16T02:55:12.815Z,99.99
2023-03-16T02:56:12.845Z,99.99
2023-03-16T02:57:12.792Z,99.99
2023-03-16T02:58:12.772Z,99.99
2023-03-16T02:59:12.773Z,99.99
2023-03-16T03:00:12.756Z,99.99
2023-03-16T03:01:12.768Z,99.99
2023-03-16T03:02:12.745Z,99.99
2023-03-16T03:03:12.800Z,99.99
2023-03-16T03:04:12.704Z,99.99
2023-03-16T03:05:12.694Z,99.99
2023-03-16T03:06:12.710Z,99.99
2023-03-16T03:07:12.680Z,99.99
2023-03-16T03:08:12.650Z,99.99
2023-03-16T03:09:12.647Z,99.99
2023-03-16T03:10:12.666Z,99.99
2023-03-16T03:11:12.615Z,99.99
2023-03-16T03:12:12.616Z,99.99
2023-03-16T03:13:12.590Z,99.99
2023-03-16T03:14:12.576Z,99.99
2023-03-16T03:15:12.569Z,99.99
2023-03-16T03:16:12.601Z,99.99
2023-03-16T03:17:12.578Z,99.99
2023-03-16T03:18:12.528Z,99.99
2023-03-16T03:19:12.522Z,99.99
2023-03-16T03:20:12.515Z,99.99
2023-03-16T03:21:12.500Z,99.99
2023-03-16T03:22:12.493Z,99.99
2023-03-16T03:23:12.491Z,99.99
2023-03-16T03:24:12.453Z,99.99
2023-03-16T03:25:12.443Z,99.99
2023-03-16T03:26:12.435Z,99.99
2023-03-16T03:27:12.439Z,99.99
2023-03-16T03:28:12.413Z,99.99
2023-03-16T03:29:12.398Z,99.99
2023-03-16T03:30:12.384Z,99.99
2023-03-16T03:31:12.410Z,99.99
2023-03-16T03:32:12.372Z,99.99
2023-03-16T03:33:12.367Z,99.99
2023-03-16T03:34:12.338Z,99.99
2023-03-16T03:35:12.349Z,99.99
2023-03-16T03:36:12.308Z,99.99
2023-03-16T03:37:12.312Z,99.99
2023-03-16T03:38:12.279Z,99.99
2023-03-16T03:39:12.268Z,99.99
2023-03-16T03:40:12.256Z,99.99
2023-03-16T03:41:12.246Z,99.99
2023-03-16T03:42:12.246Z,99.99
2023-03-16T03:43:12.218Z,99.99
2023-03-16T03:44:12.214Z,99.99
2023-03-16T03:45:12.205Z,99.99
2023-03-16T03:46:12.365Z,99.99
2023-03-16T03:47:12.220Z,99.99
2023-03-16T03:48:12.156Z,99.99
2023-03-16T03:49:12.175Z,99.99
2023-03-16T03:50:12.137Z,99.99
2023-03-16T03:51:12.120Z,99.99
2023-03-16T03:52:12.127Z,99.99
2023-03-16T03:53:12.101Z,99.99
2023-03-16T03:54:12.082Z,99.99
2023-03-16T03:55:12.074Z,99.99
2023-03-16T03:56:12.054Z,99.99
2023-03-16T03:57:12.074Z,99.99
2023-03-16T03:58:12.034Z,99.99
2023-03-16T03:59:12.025Z,99.99
2023-03-16T04:00:12.004Z,99.99
2023-03-16T04:01:11.998Z,99.99
2023-03-16T04:02:12.133Z,99.99
2023-03-16T04:03:12.231Z,99.99
2023-03-16T04:04:11.959Z,99.99
2023-03-16T04:05:11.968Z,99.99
2023-03-16T04:06:11.936Z,99.99
2023-03-16T04:07:11.946Z,99.99
2023-03-16T04:08:11.949Z,99.99
2023-03-16T04:09:11.905Z,99.99
2023-03-16T04:10:11.889Z,99.99
2023-03-16T04:11:11.875Z,99.99
2023-03-16T04:12:11.862Z,99.99
2023-03-16T04:13:11.869Z,99.99
2023-03-16T04:14:11.832Z,99.99
2023-03-16T04:15:11.825Z,99.99
2023-03-16T04:16:11.888Z,99.99
2023-03-16T04:17:11.798Z,99.99
2023-03-16T04:18:11.801Z,99.99
2023-03-16T04:19:11.781Z,99.99
2023-03-16T04:20:11.764Z,99.99
2023-03-16T04:21:11.772Z,99.99
2023-03-16T04:22:11.735Z,99.99
2023-03-16T04:23:11.739Z,99.99
2023-03-16T04:24:11.711Z,99.99
2023-03-16T04:25:11.728Z,99.99
2023-03-16T04:26:11.692Z,99.99
2023-03-16T04:27:11.669Z,99.99
2023-03-16T04:28:11.678Z,99.99
2023-03-16T04:29:11.649Z,99.99
2023-03-16T04:30:11.642Z,99.99
2023-03-16T04:31:11.696Z,99.99
2023-03-16T04:32:11.619Z,99.99
2023-03-16T04:33:11.627Z,99.99
2023-03-16T04:34:11.599Z,99.99
2023-03-16T04:35:11.578Z,99.99
2023-03-16T04:36:11.645Z,99.99
2023-03-16T04:37:11.579Z,99.99
2023-03-16T04:38:11.559Z,99.99
2023-03-16T04:39:11.525Z,99.99
2023-03-16T04:40:11.516Z,99.99
2023-03-16T04:41:11.495Z,99.99
2023-03-16T04:42:11.497Z,99.99
2023-03-16T04:43:11.488Z,99.99
2023-03-16T04:44:11.468Z,99.99
2023-03-16T04:45:11.453Z,99.99
2023-03-16T04:46:11.486Z,99.99
2023-03-16T04:47:11.430Z,99.99
2023-03-16T04:48:11.432Z,99.99
2023-03-16T04:49:11.422Z,99.99
2023-03-16T04:50:11.393Z,99.99
2023-03-16T04:51:11.382Z,99.99
2023-03-16T04:52:11.368Z,99.99
2023-03-16T04:53:11.396Z,99.99
2023-03-16T04:54:11.376Z,99.99
2023-03-16T04:55:11.357Z,99.99
2023-03-16T04:56:11.339Z,99.99
2023-03-16T04:57:11.319Z,99.99
2023-03-16T04:58:11.315Z,99.99
2023-03-16T04:59:11.285Z,99.99
2023-03-16T05:00:11.271Z,99.99
2023-03-16T05:01:11.289Z,99.99
2023-03-16T05:02:11.262Z,99.99
2023-03-16T05:03:11.262Z,99.99
2023-03-16T05:04:17.195Z,99.99
2023-03-16T05:05:11.246Z,99.99
2023-03-16T05:06:11.193Z,99.99
2023-03-16T05:07:11.180Z,99.99
2023-03-16T05:08:11.258Z,99.99
2023-03-16T05:09:11.183Z,99.99
2023-03-16T05:10:11.155Z,99.99
2023-03-16T05:11:11.130Z,99.99
2023-03-16T05:12:11.124Z,99.99
2023-03-16T05:13:11.127Z,99.99
2023-03-16T05:14:11.098Z,99.99
2023-03-16T05:15:11.090Z,99.99
2023-03-16T05:16:11.123Z,99.99
2023-03-16T05:17:11.054Z,99.99
2023-03-16T05:18:11.055Z,99.99
2023-03-16T05:19:11.095Z,99.99
2023-03-16T05:20:11.034Z,99.99
2023-03-16T05:21:11.004Z,99.99
2023-03-16T05:22:10.995Z,99.99
2023-03-16T05:23:11.005Z,99.99
2023-03-16T05:24:10.971Z,99.99
2023-03-16T05:25:10.980Z,99.99
2023-03-16T05:26:10.947Z,99.99
2023-03-16T05:27:10.930Z,99.99
2023-03-16T05:28:10.929Z,99.99
2023-03-16T05:29:10.951Z,99.99
2023-03-16T05:30:10.911Z,99.99
2023-03-16T05:31:10.920Z,99.99
2023-03-16T05:32:10.868Z,99.99
2023-03-16T05:33:10.946Z,99.99
2023-03-16T05:34:10.861Z,99.99
2023-03-16T05:35:10.831Z,99.99
2023-03-16T05:36:10.865Z,99.99
2023-03-16T05:37:10.805Z,99.99
2023-03-16T05:38:10.801Z,99.99
2023-03-16T05:39:10.802Z,99.99
2023-03-16T05:40:10.772Z,99.99
2023-03-16T05:41:10.797Z,99.99
2023-03-16T05:42:10.756Z,99.99
2023-03-16T05:43:10.744Z,99.99
2023-03-16T05:44:10.745Z,99.99
2023-03-16T05:45:10.720Z,99.99
2023-03-16T05:46:10.708Z,99.99
2023-03-16T05:47:10.700Z,99.99
2023-03-16T05:48:10.680Z,99.99
2023-03-16T05:49:10.688Z,99.99
2023-03-16T05:50:10.651Z,99.99
2023-03-16T05:51:10.640Z,99.99
2023-03-16T05:52:10.653Z,99.99
2023-03-16T05:53:10.614Z,99.99
2023-03-16T05:54:10.617Z,99.99
2023-03-16T05:55:10.590Z,99.99
2023-03-16T05:56:10.596Z,99.99
2023-03-16T05:57:10.590Z,99.99
2023-03-16T05:58:10.558Z,99.99
2023-03-16T05:59:10.553Z,99.99
2023-03-16T06:00:10.529Z,99.99
2023-03-16T06:01:10.521Z,99.99
2023-03-16T06:02:10.507Z,99.99
2023-03-16T06:03:10.619Z,99.99
2023-03-16T06:04:10.597Z,99.99
2023-03-16T06:05:10.462Z,99.99
2023-03-16T06:06:10.463Z,99.99
2023-03-16T06:07:10.454Z,99.99
2023-03-16T06:08:10.451Z,99.99
2023-03-16T06:09:10.437Z,99.99
2023-03-16T06:10:10.423Z,99.99
2023-03-16T06:11:10.393Z,99.99
2023-03-16T06:12:10.380Z,99.99
2023-03-16T06:13:10.381Z,99.99
2023-03-16T06:14:10.359Z,99.99
2023-03-16T06:15:10.367Z,99.99
2023-03-16T06:16:10.393Z,99.99
2023-03-16T06:17:10.319Z,99.99
2023-03-16T06:18:10.310Z,99.99
2023-03-16T06:19:10.293Z,99.99
2023-03-16T06:20:10.331Z,99.99
2023-03-16T06:21:10.264Z,99.99
2023-03-16T06:22:10.496Z,99.99
2023-03-16T06:23:10.245Z,99.99
2023-03-16T06:24:10.243Z,99.99
2023-03-16T06:25:10.241Z,99.99
2023-03-16T06:26:10.206Z,99.99
2023-03-16T06:27:10.189Z,99.99
2023-03-16T06:28:10.182Z,99.99
2023-03-16T06:29:10.194Z,99.99
2023-03-16T06:30:10.182Z,99.99
2023-03-16T06:31:10.176Z,99.99
2023-03-16T06:32:10.133Z,99.99
2023-03-16T06:33:10.152Z,99.99
2023-03-16T06:34:10.105Z,99.99
2023-03-16T06:35:10.106Z,98.38
2023-03-16T06:36:10.135Z,97.04
2023-03-16T06:37:10.069Z,95.72
2023-03-16T06:38:10.058Z,92.05
2023-03-16T06:39:10.051Z,89.89
2023-03-16T06:40:10.051Z,88.53
2023-03-16T06:41:10.029Z,84.82
2023-03-16T06:42:10.009Z,83.02
2023-03-16T06:43:09.993Z,81.84
2023-03-16T06:44:09.983Z,79.36
2023-03-16T06:45:10.011Z,80.05
2023-03-16T06:46:10.009Z,79.56
2023-03-16T06:47:09.947Z,77.60
2023-03-16T06:48:10.029Z,77.19
2023-03-16T06:49:09.917Z,75.36
2023-03-16T06:50:09.923Z,74.88
2023-03-16T06:51:09.896Z,74.71
2023-03-16T06:52:09.884Z,72.85
2023-03-16T06:53:09.866Z,73.78
2023-03-16T06:54:09.873Z,73.30
2023-03-16T06:55:09.863Z,73.12
2023-03-16T06:56:09.834Z,74.12
2023-03-16T06:57:09.839Z,73.23
2023-03-16T06:58:09.804Z,72.71
2023-03-16T06:59:09.790Z,72.78
2023-03-16T07:00:09.816Z,71.07
2023-03-16T07:01:09.841Z,70.46
2023-03-16T07:02:09.763Z,68.57
2023-03-16T07:03:09.741Z,67.79
2023-03-16T07:04:09.809Z,66.87
2023-03-16T07:05:09.721Z,65.92
2023-03-16T07:06:09.718Z,65.17
2023-03-16T07:07:09.705Z,64.65
2023-03-16T07:08:09.683Z,64.94
2023-03-16T07:09:09.670Z,63.37
2023-03-16T07:10:09.647Z,62.73
2023-03-16T07:11:09.645Z,62.62
2023-03-16T07:12:09.622Z,62.18
2023-03-16T07:13:09.609Z,62.39
2023-03-16T07:14:09.629Z,61.24
2023-03-16T07:15:09.583Z,60.78
2023-03-16T07:16:09.702Z,61.70
2023-03-16T07:17:09.569Z,61.98
2023-03-16T07:18:09.541Z,60.62
2023-03-16T07:19:09.533Z,60.49
2023-03-16T07:20:09.522Z,59.67
2023-03-16T07:21:09.518Z,59.68
2023-03-16T07:22:09.487Z,63.10
2023-03-16T07:23:09.476Z,63.46
2023-03-16T07:24:09.468Z,62.27
2023-03-16T07:25:09.452Z,62.11
2023-03-16T07:26:09.468Z,60.37
2023-03-16T07:27:11.414Z,59.44
2023-03-16T07:28:09.416Z,58.75
2023-03-16T07:29:09.403Z,58.98
2023-03-16T07:30:09.387Z,60.74
2023-03-16T07:31:09.398Z,62.90
2023-03-16T07:32:09.416Z,63.93
2023-03-16T07:33:09.546Z,63.82
2023-03-16T07:34:09.337Z,63.68
2023-03-16T07:35:09.328Z,65.50
2023-03-16T07:36:09.490Z,63.90
2023-03-16T07:37:09.294Z,64.51
2023-03-16T07:38:09.282Z,63.79
2023-03-16T07:39:09.275Z,62.33
2023-03-16T07:40:09.511Z,61.09
2023-03-16T07:41:09.259Z,61.01
2023-03-16T07:42:09.228Z,60.37
2023-03-16T07:43:09.219Z,58.76
2023-03-16T07:44:09.201Z,61.61
2023-03-16T07:45:09.196Z,61.79
2023-03-16T07:46:09.290Z,61.41
2023-03-16T07:47:09.160Z,61.64
2023-03-16T07:48:09.148Z,61.07
2023-03-16T07:49:09.156Z,60.76
2023-03-16T07:50:09.128Z,61.45
2023-03-16T07:51:09.132Z,61.54
2023-03-16T07:52:09.096Z,61.58
2023-03-16T07:53:09.102Z,61.76
2023-03-16T07:54:09.069Z,61.74
2023-03-16T07:55:09.060Z,62.83
2023-03-16T07:56:09.058Z,64.43
2023-03-16T07:57:09.061Z,65.32
2023-03-16T07:58:09.062Z,64.06
2023-03-16T07:59:09.004Z,64.37
2023-03-16T08:00:08.993Z,63.44
2023-03-16T08:01:08.976Z,63.49
2023-03-16T08:02:09.031Z,62.48
2023-03-16T08:03:08.976Z,60.55
2023-03-16T08:04:08.936Z,59.98
2023-03-16T08:05:08.957Z,58.34
2023-03-16T08:06:08.929Z,59.42
2023-03-16T08:07:08.925Z,59.00
2023-03-16T08:08:08.882Z,62.18
2023-03-16T08:09:08.867Z,63.62
2023-03-16T08:10:08.862Z,62.17
2023-03-16T08:11:08.852Z,60.27
2023-03-16T08:12:08.850Z,59.45
2023-03-16T08:13:08.821Z,59.47
2023-03-16T08:14:08.822Z,57.45
2023-03-16T08:15:08.792Z,55.22
2023-03-16T08:16:08.837Z,55.26
2023-03-16T08:17:08.784Z,57.09
2023-03-16T08:18:08.755Z,56.92
2023-03-16T08:19:08.751Z,58.22
2023-03-16T08:20:08.731Z,59.61
2023-03-16T08:21:08.733Z,61.18
2023-03-16T08:22:08.720Z,62.46
2023-03-16T08:23:08.688Z,61.45
2023-03-16T08:24:08.678Z,61.11
2023-03-16T08:25:08.667Z,61.15
2023-03-16T08:26:08.689Z,60.42
2023-03-16T08:27:08.659Z,60.50
2023-03-16T08:28:08.626Z,61.70
2023-03-16T08:29:08.694Z,64.47
2023-03-16T08:30:08.614Z,65.97
2023-03-16T08:31:08.621Z,65.80
2023-03-16T08:32:08.592Z,66.07
2023-03-16T08:33:08.734Z,65.94
2023-03-16T08:34:08.548Z,65.63
2023-03-16T08:35:08.542Z,64.47
2023-03-16T08:36:08.586Z,64.57
2023-03-16T08:37:08.573Z,64.29
2023-03-16T08:38:08.499Z,65.05
2023-03-16T08:39:09.216Z,65.12
2023-03-16T08:40:08.470Z,66.41
2023-03-16T08:41:08.456Z,66.20
2023-03-16T08:42:08.446Z,65.63
2023-03-16T08:43:08.440Z,64.31
2023-03-16T08:44:08.424Z,62.48
2023-03-16T08:45:08.420Z,60.37
2023-03-16T08:46:08.402Z,61.20
2023-03-16T08:47:08.387Z,62.10
2023-03-16T08:48:08.374Z,63.78
2023-03-16T08:49:08.343Z,63.39
2023-03-16T08:50:08.332Z,63.90
2023-03-16T08:51:08.323Z,64.67
2023-03-16T08:52:08.310Z,64.78
2023-03-16T08:53:08.333Z,63.90
2023-03-16T08:54:08.277Z,62.87
2023-03-16T08:55:08.267Z,63.46
2023-03-16T08:56:08.249Z,62.40
2023-03-16T08:57:08.237Z,62.95
2023-03-16T08:58:08.241Z,62.92
2023-03-16T08:59:16.798Z,62.54
2023-03-16T09:00:08.204Z,63.25
2023-03-16T09:01:08.208Z,63.12
2023-03-16T09:02:08.272Z,61.50
2023-03-16T09:03:08.172Z,61.29
2023-03-16T09:04:08.190Z,59.45
2023-03-16T09:05:08.137Z,60.84
2023-03-16T09:06:08.122Z,61.55
2023-03-16T09:07:09.699Z,62.30
2023-03-16T09:08:08.110Z,62.19
2023-03-16T09:09:08.132Z,60.85
2023-03-16T09:10:08.071Z,59.09
2023-03-16T09:11:08.056Z,58.52
2023-03-16T09:12:08.039Z,58.01
2023-03-16T09:13:08.044Z,57.63
2023-03-16T09:14:08.017Z,59.35
2023-03-16T09:15:08.003Z,60.42
2023-03-16T09:16:08.024Z,59.71
2023-03-16T09:17:07.981Z,62.71
2023-03-16T09:18:07.991Z,62.17
2023-03-16T09:19:07.971Z,61.83
2023-03-16T09:20:21.203Z,62.49
2023-03-16T09:21:08.936Z,65.19
2023-03-16T09:22:07.912Z,63.28
2023-03-16T09:23:07.912Z,64.03
2023-03-16T09:24:07.883Z,64.75
2023-03-16T09:25:07.942Z,64.63
2023-03-16T09:26:07.858Z,67.26
2023-03-16T09:27:07.937Z,67.23
2023-03-16T09:28:07.872Z,66.55
2023-03-16T09:29:07.821Z,64.97
2023-03-16T09:30:07.805Z,62.99
2023-03-16T09:31:07.849Z,60.78
2023-03-16T09:32:07.772Z,61.32
2023-03-16T09:33:07.908Z,62.49
2023-03-16T09:34:07.756Z,65.77
2023-03-16T09:35:07.745Z,65.16
2023-03-16T09:36:07.744Z,63.46
2023-03-16T09:37:07.722Z,61.70
2023-03-16T09:38:07.724Z,60.83
2023-03-16T09:39:07.688Z,59.55
2023-03-16T09:40:11.981Z,61.19
2023-03-16T09:41:07.726Z,63.93
2023-03-16T09:42:07.665Z,62.88
2023-03-16T09:43:07.654Z,63.06
2023-03-16T09:44:07.632Z,60.14
2023-03-16T09:45:07.615Z,63.05
2023-03-16T09:46:07.694Z,63.32
2023-03-16T09:47:07.586Z,64.65
2023-03-16T09:48:07.587Z,61.93
2023-03-16T09:49:07.565Z,62.55
2023-03-16T09:50:07.605Z,61.16
2023-03-16T09:51:07.622Z,59.85
2023-03-16T09:52:07.527Z,61.48
2023-03-16T09:53:07.527Z,61.43
2023-03-16T09:54:07.503Z,60.60
2023-03-16T09:55:07.495Z,59.86
2023-03-16T09:56:07.470Z,61.99
2023-03-16T09:57:07.477Z,62.61
2023-03-16T09:58:07.467Z,62.04
2023-03-16T09:59:07.641Z,62.17
2023-03-16T10:00:07.416Z,64.04
2023-03-16T10:01:07.558Z,62.62
2023-03-16T10:02:07.401Z,62.07
2023-03-16T10:03:07.503Z,62.99
2023-03-16T10:04:07.467Z,64.38
2023-03-16T10:05:07.367Z,64.07
2023-03-16T10:06:07.337Z,64.48
2023-03-16T10:07:07.327Z,62.54
2023-03-16T10:08:07.312Z,65.73
2023-03-16T10:09:07.315Z,66.16
2023-03-16T10:10:07.291Z,64.67
2023-03-16T10:11:07.275Z,66.83
2023-03-16T10:12:07.275Z,66.19
2023-03-16T10:13:07.275Z,64.95
2023-03-16T10:14:07.254Z,64.88
2023-03-16T10:15:07.539Z,65.03
2023-03-16T10:16:07.268Z,64.35
2023-03-16T10:17:07.200Z,64.37
2023-03-16T10:18:07.202Z,66.19
2023-03-16T10:19:07.187Z,64.45
2023-03-16T10:20:07.162Z,61.91
2023-03-16T10:21:07.150Z,64.31
2023-03-16T10:22:07.134Z,64.79
2023-03-16T10:23:07.123Z,64.25
2023-03-16T10:24:07.119Z,63.09
2023-03-16T10:25:07.100Z,61.47
2023-03-16T10:26:07.180Z,60.27
2023-03-16T10:27:07.072Z,62.49
2023-03-16T10:28:07.064Z,60.69
2023-03-16T10:29:07.105Z,61.00
2023-03-16T10:30:07.034Z,60.05
2023-03-16T10:31:07.025Z,59.00
2023-03-16T10:32:07.072Z,57.14
2023-03-16T10:33:09.193Z,57.37
2023-03-16T10:34:06.989Z,58.29
2023-03-16T10:35:06.963Z,60.28
2023-03-16T10:36:07.002Z,61.57
2023-03-16T10:37:06.942Z,60.57
2023-03-16T10:38:06.925Z,60.19
2023-03-16T10:39:06.955Z,58.80
2023-03-16T10:40:06.928Z,60.30
2023-03-16T10:41:06.886Z,61.70
2023-03-16T10:42:07.683Z,61.03
2023-03-16T10:43:06.863Z,60.24
2023-03-16T10:44:06.860Z,62.35
2023-03-16T10:45:06.859Z,63.94
2023-03-16T10:46:06.889Z,63.60
2023-03-16T10:47:06.832Z,64.04
2023-03-16T10:48:06.832Z,64.34
2023-03-16T10:49:06.814Z,66.93
2023-03-16T10:50:06.805Z,65.54
2023-03-16T10:51:06.764Z,64.18
2023-03-16T10:52:06.750Z,63.64
2023-03-16T10:53:06.739Z,63.68
2023-03-16T10:54:06.782Z,61.72
2023-03-16T10:55:06.712Z,61.13
2023-03-16T10:56:06.702Z,61.50
2023-03-16T10:57:06.686Z,63.46
2023-03-16T10:58:06.680Z,65.03
2023-03-16T10:59:06.677Z,65.54
2023-03-16T11:00:06.649Z,64.25
2023-03-16T11:01:06.685Z,63.17
2023-03-16T11:02:06.627Z,62.11
2023-03-16T11:03:06.612Z,60.90
2023-03-16T11:04:06.707Z,62.17
2023-03-16T11:05:06.597Z,64.61
2023-03-16T11:06:06.578Z,65.12
2023-03-16T11:07:06.560Z,65.57
2023-03-16T11:08:06.546Z,65.80
2023-03-16T11:09:06.552Z,66.45
2023-03-16T11:10:06.515Z,66.63
2023-03-16T11:11:06.504Z,64.89
2023-03-16T11:12:06.494Z,64.00
2023-03-16T11:13:06.482Z,64.34
2023-03-16T11:14:06.478Z,64.17
2023-03-16T11:15:11.494Z,64.14
2023-03-16T11:16:06.438Z,63.41
2023-03-16T11:17:06.487Z,61.13
2023-03-16T11:18:06.414Z,60.16
2023-03-16T11:19:06.422Z,59.21
2023-03-16T11:20:06.382Z,59.57
2023-03-16T11:21:06.394Z,61.85
2023-03-16T11:22:06.362Z,60.87
2023-03-16T11:23:06.358Z,60.45
2023-03-16T11:24:06.349Z,57.98
2023-03-16T11:25:06.318Z,59.62
2023-03-16T11:26:06.305Z,58.64
2023-03-16T11:27:06.296Z,59.69
2023-03-16T11:28:06.282Z,59.12
2023-03-16T11:29:06.290Z,56.96
2023-03-16T11:30:06.254Z,56.32
2023-03-16T11:31:06.294Z,56.76
2023-03-16T11:32:06.232Z,56.96
2023-03-16T11:33:06.344Z,56.15
2023-03-16T11:34:06.216Z,57.29
2023-03-16T11:35:06.214Z,58.18
2023-03-16T11:36:06.240Z,55.66
2023-03-16T11:37:06.161Z,54.79
2023-03-16T11:38:06.160Z,54.03
2023-03-16T11:39:06.158Z,56.73
2023-03-16T11:40:06.128Z,57.09
2023-03-16T11:41:06.116Z,57.90
2023-03-16T11:42:06.119Z,57.12
2023-03-16T11:43:06.088Z,56.58
2023-03-16T11:44:06.090Z,56.22
2023-03-16T11:45:06.063Z,58.50
2023-03-16T11:46:06.120Z,58.64
2023-03-16T11:47:06.037Z,59.69
2023-03-16T11:48:06.024Z,58.98
2023-03-16T11:49:06.054Z,58.54
2023-03-16T11:50:05.999Z,58.54
2023-03-16T11:51:05.985Z,58.70
2023-03-16T11:52:05.968Z,61.60
2023-03-16T11:53:05.956Z,62.48
2023-03-16T11:54:05.952Z,62.37
2023-03-16T11:55:05.931Z,61.77
2023-03-16T11:56:05.910Z,61.10
2023-03-16T11:57:05.908Z,59.77
2023-03-16T11:58:05.903Z,58.01
2023-03-16T11:59:05.895Z,59.08
2023-03-16T12:00:05.868Z,59.75
2023-03-16T12:01:05.848Z,60.52
2023-03-16T12:02:05.887Z,59.72
2023-03-16T12:03:05.855Z,60.52
2023-03-16T12:04:05.848Z,61.34
2023-03-16T12:05:05.817Z,61.10
2023-03-16T12:06:13.740Z,59.95
2023-03-16T12:07:05.798Z,60.75
2023-03-16T12:08:05.758Z,61.51
2023-03-16T12:09:05.764Z,61.15
2023-03-16T12:10:05.729Z,59.77
2023-03-16T12:11:05.721Z,59.43
2023-03-16T12:12:05.701Z,58.05
2023-03-16T12:13:05.689Z,58.26
2023-03-16T12:14:05.707Z,59.31
2023-03-16T12:15:05.663Z,59.18
2023-03-16T12:16:05.746Z,59.46
2023-03-16T12:17:05.748Z,60.61
2023-03-16T12:18:05.622Z,59.39
2023-03-16T12:19:05.620Z,57.17
2023-03-16T12:20:05.624Z,57.12
2023-03-16T12:21:05.612Z,56.58
2023-03-16T12:22:05.606Z,59.47
2023-03-16T12:23:05.554Z,60.03
2023-03-16T12:24:05.601Z,57.47
2023-03-16T12:25:05.608Z,55.58
2023-03-16T12:26:05.582Z,55.46
2023-03-16T12:27:05.506Z,55.10
2023-03-16T12:28:05.502Z,55.74
2023-03-16T12:29:05.490Z,57.65
2023-03-16T12:30:05.483Z,59.82
2023-03-16T12:31:05.477Z,59.52
2023-03-16T12:32:05.446Z,59.44
2023-03-16T12:33:05.498Z,62.73
2023-03-16T12:34:05.432Z,63.24
2023-03-16T12:35:05.409Z,63.06
2023-03-16T12:36:05.435Z,64.18
2023-03-16T12:37:05.391Z,63.88
2023-03-16T12:38:05.373Z,63.21
2023-03-16T12:39:05.453Z,62.46
2023-03-16T12:40:05.338Z,61.41
2023-03-16T12:41:05.321Z,61.61
2023-03-16T12:42:05.310Z,60.87
2023-03-16T12:43:05.293Z,61.61
2023-03-16T12:44:05.395Z,61.28
2023-03-16T12:45:05.279Z,61.25
2023-03-16T12:46:05.327Z,61.21
2023-03-16T12:47:05.241Z,60.89
2023-03-16T12:48:05.226Z,59.66
2023-03-16T12:49:05.237Z,59.12
2023-03-16T12:50:05.204Z,56.83
2023-03-16T12:51:05.185Z,59.46
2023-03-16T12:52:05.180Z,59.87